SBD396 KEYW-KCLE
Flight info
| Callsign | SBD396 |
|---|---|
| Flight time | N/A |
| Altitude | 38000 |
| Route | BUFTT1 MATLK Q87 ZERBO/N0462F370 Q87 VIYAP JANYS ROLLN2 |
| Aircraft | B38M/M-SDE1FGHILORVWXY/HB1 |
Departure
| Time | 2026-04-30 19:52 |
|---|---|
| Airport | Key West International Airport (KEYW) |
Arrival
| Time | N/A |
|---|---|
| Airport | Cleveland Hopkins International Airport (KCLE) |
| Time | Latitude | Longitude | Altitude | Speed | Heading |
|---|---|---|---|---|---|
| 2026-04-30 19:33 | 24.55434 | -81.75334 | 9 ft | 0 kts | 230° |
| 2026-04-30 19:43 | 24.55438 | -81.75329 | 9 ft | 1 kts | 230° |
| 2026-04-30 19:43 | 24.55449 | -81.75320 | 9 ft | 2 kts | 199° |
| 2026-04-30 19:44 | 24.55477 | -81.75323 | 9 ft | 2 kts | 143° |
| 2026-04-30 19:44 | 24.55487 | -81.75335 | 9 ft | 2 kts | 115° |
| 2026-04-30 19:44 | 24.55491 | -81.75348 | 9 ft | 1 kts | 90° |
| 2026-04-30 19:44 | 24.55491 | -81.75351 | 9 ft | 0 kts | 90° |
| 2026-04-30 19:47 | 24.55491 | -81.75338 | 9 ft | 1 kts | 82° |
| 2026-04-30 19:47 | 24.55498 | -81.75329 | 9 ft | 2 kts | 37° |
| 2026-04-30 19:48 | 24.55521 | -81.75322 | 9 ft | 6 kts | 335° |
| 2026-04-30 19:48 | 24.55532 | -81.75378 | 9 ft | 12 kts | 273° |
| 2026-04-30 19:48 | 24.55530 | -81.75504 | 9 ft | 16 kts | 269° |
| 2026-04-30 19:48 | 24.55529 | -81.75629 | 9 ft | 15 kts | 268° |
| 2026-04-30 19:49 | 24.55526 | -81.75745 | 9 ft | 14 kts | 268° |
| 2026-04-30 19:49 | 24.55525 | -81.76007 | 9 ft | 18 kts | 270° |
| 2026-04-30 19:49 | 24.55524 | -81.76140 | 9 ft | 16 kts | 269° |
| 2026-04-30 19:50 | 24.55523 | -81.76265 | 9 ft | 15 kts | 269° |
| 2026-04-30 19:50 | 24.55522 | -81.76391 | 9 ft | 17 kts | 269° |
| 2026-04-30 19:50 | 24.55519 | -81.76520 | 9 ft | 16 kts | 270° |
| 2026-04-30 19:50 | 24.55527 | -81.76637 | 9 ft | 13 kts | 305° |
| 2026-04-30 19:51 | 24.55594 | -81.76675 | 9 ft | 9 kts | 285° |
| 2026-04-30 19:51 | 24.55597 | -81.76731 | 9 ft | 1 kts | 297° |
| 2026-04-30 19:51 | 24.55604 | -81.76724 | 9 ft | 3 kts | 76° |
| 2026-04-30 19:51 | 24.55604 | -81.76712 | 9 ft | 0 kts | 87° |
| 2026-04-30 19:52 | 24.55606 | -81.76654 | 9 ft | 39 kts | 89° |
| 2026-04-30 19:52 | 24.55610 | -81.76002 | 9 ft | 128 kts | 89° |
| 2026-04-30 19:52 | 24.55624 | -81.74781 | 240 ft | 178 kts | 90° |
| 2026-04-30 19:52 | 24.55706 | -81.73513 | 876 ft | 160 kts | 82° |
| 2026-04-30 19:53 | 24.56132 | -81.72432 | 1033 ft | 162 kts | 41° |
| 2026-04-30 19:53 | 24.57244 | -81.71962 | 1181 ft | 185 kts | 5° |
| 2026-04-30 19:53 | 24.58589 | -81.71872 | 1805 ft | 201 kts | 4° |
| 2026-04-30 19:53 | 24.60010 | -81.71779 | 2471 ft | 212 kts | 1° |
| 2026-04-30 19:54 | 24.61536 | -81.71755 | 3087 ft | 227 kts | 359° |
| 2026-04-30 19:54 | 24.63157 | -81.71763 | 3728 ft | 241 kts | 359° |
| 2026-04-30 19:54 | 24.64860 | -81.71773 | 4452 ft | 250 kts | 359° |
| 2026-04-30 19:54 | 24.66591 | -81.71790 | 5381 ft | 253 kts | 359° |
| 2026-04-30 19:55 | 24.68363 | -81.71807 | 6231 ft | 261 kts | 358° |
| 2026-04-30 19:55 | 24.70223 | -81.71795 | 6943 ft | 274 kts | 3° |
| 2026-04-30 19:55 | 24.72098 | -81.71329 | 7798 ft | 283 kts | 23° |
| 2026-04-30 19:55 | 24.73693 | -81.70072 | 8714 ft | 288 kts | 44° |
| 2026-04-30 19:56 | 24.75061 | -81.68461 | 9576 ft | 293 kts | 45° |
| 2026-04-30 19:56 | 24.76461 | -81.66822 | 10399 ft | 298 kts | 44° |
| 2026-04-30 19:56 | 24.77931 | -81.65128 | 10900 ft | 315 kts | 44° |
| 2026-04-30 19:56 | 24.79468 | -81.63347 | 11456 ft | 328 kts | 44° |
| 2026-04-30 19:57 | 24.81070 | -81.61482 | 11977 ft | 343 kts | 44° |
| 2026-04-30 19:57 | 24.82742 | -81.59534 | 12438 ft | 358 kts | 44° |
| 2026-04-30 19:57 | 24.84510 | -81.57530 | 12858 ft | 372 kts | 42° |
| 2026-04-30 19:57 | 24.86397 | -81.55503 | 13208 ft | 386 kts | 41° |
| 2026-04-30 19:58 | 24.88346 | -81.53430 | 13804 ft | 393 kts | 41° |
| 2026-04-30 19:58 | 24.90313 | -81.51325 | 14550 ft | 394 kts | 41° |
| 2026-04-30 19:58 | 24.92282 | -81.49211 | 15214 ft | 397 kts | 41° |
| 2026-04-30 19:58 | 24.94259 | -81.47084 | 15885 ft | 400 kts | 41° |
| 2026-04-30 19:59 | 24.96252 | -81.44933 | 16531 ft | 403 kts | 41° |
| 2026-04-30 19:59 | 24.98252 | -81.42776 | 17189 ft | 405 kts | 41° |
| 2026-04-30 19:59 | 25.02309 | -81.38401 | 18265 ft | 414 kts | 40° |
| 2026-04-30 20:00 | 25.04368 | -81.36180 | 18855 ft | 416 kts | 40° |
| 2026-04-30 20:00 | 25.06439 | -81.33942 | 19396 ft | 419 kts | 41° |
| 2026-04-30 20:00 | 25.08536 | -81.31676 | 19814 ft | 425 kts | 41° |
| 2026-04-30 20:00 | 25.10648 | -81.29392 | 20319 ft | 427 kts | 41° |
| 2026-04-30 20:01 | 25.14922 | -81.24765 | 21213 ft | 435 kts | 41° |
| 2026-04-30 20:01 | 25.17087 | -81.22418 | 21700 ft | 437 kts | 40° |
| 2026-04-30 20:01 | 25.19259 | -81.20065 | 22161 ft | 440 kts | 41° |
| 2026-04-30 20:02 | 25.23657 | -81.15296 | 22980 ft | 447 kts | 41° |
| 2026-04-30 20:02 | 25.25880 | -81.12880 | 23440 ft | 449 kts | 40° |
| 2026-04-30 20:03 | 25.30377 | -81.07998 | 24185 ft | 458 kts | 40° |
| 2026-04-30 20:03 | 25.32712 | -81.05612 | 24637 ft | 458 kts | 38° |
| 2026-04-30 20:03 | 25.35240 | -81.03487 | 25042 ft | 456 kts | 28° |
| 2026-04-30 20:03 | 25.38075 | -81.01940 | 25447 ft | 455 kts | 19° |
| 2026-04-30 20:04 | 25.41043 | -81.00713 | 25826 ft | 456 kts | 16° |
| 2026-04-30 20:04 | 25.44087 | -80.99721 | 26200 ft | 456 kts | 9° |
| 2026-04-30 20:04 | 25.47238 | -80.99248 | 26567 ft | 456 kts | 1° |
| 2026-04-30 20:05 | 25.53615 | -80.98982 | 27249 ft | 461 kts | 359° |
| 2026-04-30 20:05 | 25.56827 | -80.98887 | 27643 ft | 463 kts | 359° |
| 2026-04-30 20:05 | 25.63270 | -80.98658 | 28646 ft | 461 kts | 359° |
| 2026-04-30 20:06 | 25.66461 | -80.98532 | 29285 ft | 458 kts | 359° |
| 2026-04-30 20:06 | 25.69627 | -80.98403 | 29899 ft | 454 kts | 359° |
| 2026-04-30 20:06 | 25.72780 | -80.98274 | 30460 ft | 452 kts | 359° |
| 2026-04-30 20:06 | 25.75921 | -80.98142 | 30984 ft | 451 kts | 359° |
| 2026-04-30 20:07 | 25.79052 | -80.98011 | 31578 ft | 448 kts | 359° |
| 2026-04-30 20:07 | 25.82150 | -80.97880 | 32205 ft | 444 kts | 359° |
| 2026-04-30 20:07 | 25.88235 | -80.97617 | 33706 ft | 430 kts | 359° |
| 2026-04-30 20:08 | 25.91206 | -80.97489 | 34375 ft | 426 kts | 359° |
| 2026-04-30 20:08 | 25.94156 | -80.97363 | 34914 ft | 424 kts | 359° |
| 2026-04-30 20:08 | 25.97099 | -80.97238 | 35405 ft | 422 kts | 359° |
| 2026-04-30 20:08 | 26.00027 | -80.97114 | 35842 ft | 421 kts | 359° |
| 2026-04-30 20:09 | 26.02954 | -80.96988 | 36266 ft | 420 kts | 359° |
| 2026-04-30 20:09 | 26.05868 | -80.96862 | 36755 ft | 418 kts | 359° |
| 2026-04-30 20:09 | 26.11728 | -80.96610 | 36888 ft | 423 kts | 358° |
| 2026-04-30 20:10 | 26.20519 | -80.96229 | 36882 ft | 415 kts | 359° |
| 2026-04-30 20:11 | 26.29336 | -80.95848 | 36879 ft | 417 kts | 358° |
| 2026-04-30 20:11 | 26.35156 | -80.95596 | 36888 ft | 416 kts | 358° |
| 2026-04-30 20:12 | 26.43872 | -80.95149 | 36880 ft | 418 kts | 0° |
| 2026-04-30 20:13 | 26.49682 | -80.94506 | 36883 ft | 419 kts | 1° |
| 2026-04-30 20:13 | 26.55492 | -80.93839 | 36878 ft | 418 kts | 1° |
| 2026-04-30 20:14 | 26.61288 | -80.93192 | 36883 ft | 419 kts | 1° |
| 2026-04-30 20:14 | 26.67118 | -80.92551 | 36878 ft | 421 kts | 1° |
| 2026-04-30 20:15 | 26.72940 | -80.91914 | 36874 ft | 420 kts | 1° |
| 2026-04-30 20:15 | 26.78769 | -80.91277 | 36874 ft | 420 kts | 1° |
| 2026-04-30 20:16 | 26.84521 | -80.90650 | 36869 ft | 421 kts | 1° |
| 2026-04-30 20:16 | 26.89616 | -80.90098 | 36871 ft | 421 kts | 0° |
| 2026-04-30 20:17 | 26.95411 | -80.89461 | 36871 ft | 418 kts | 0° |
| 2026-04-30 20:17 | 27.01220 | -80.88827 | 36877 ft | 420 kts | 1° |
| 2026-04-30 20:18 | 27.07033 | -80.88193 | 36878 ft | 419 kts | 1° |
| 2026-04-30 20:18 | 27.12861 | -80.87557 | 36883 ft | 420 kts | 0° |
| 2026-04-30 20:19 | 27.18656 | -80.86919 | 36888 ft | 418 kts | 0° |
| 2026-04-30 20:19 | 27.24462 | -80.86276 | 36883 ft | 420 kts | 0° |
| 2026-04-30 20:20 | 27.30296 | -80.85814 | 36878 ft | 417 kts | 356° |
| 2026-04-30 20:20 | 27.36016 | -80.86319 | 36876 ft | 411 kts | 347° |
| 2026-04-30 20:21 | 27.41652 | -80.87338 | 36875 ft | 410 kts | 346° |
| 2026-04-30 20:21 | 27.47320 | -80.88401 | 36872 ft | 418 kts | 346° |
| 2026-04-30 20:22 | 27.53117 | -80.89493 | 36870 ft | 425 kts | 346° |
| 2026-04-30 20:22 | 27.58929 | -80.90588 | 36868 ft | 423 kts | 346° |
| 2026-04-30 20:23 | 27.64730 | -80.91688 | 36868 ft | 421 kts | 346° |
| 2026-04-30 20:23 | 27.70508 | -80.92787 | 36868 ft | 421 kts | 346° |
| 2026-04-30 20:24 | 27.76277 | -80.93886 | 36869 ft | 421 kts | 346° |
| 2026-04-30 20:24 | 27.82057 | -80.94989 | 36869 ft | 421 kts | 346° |
| 2026-04-30 20:25 | 27.90721 | -80.96662 | 36867 ft | 419 kts | 345° |
| 2026-04-30 20:26 | 27.99374 | -80.98343 | 36869 ft | 420 kts | 345° |
| 2026-04-30 20:26 | 28.08033 | -81.00022 | 36868 ft | 419 kts | 345° |
| 2026-04-30 20:27 | 28.19551 | -81.02265 | 36868 ft | 419 kts | 345° |
| 2026-04-30 20:28 | 28.31065 | -81.04512 | 36867 ft | 420 kts | 345° |
| 2026-04-30 20:30 | 28.44845 | -81.09239 | 36878 ft | 413 kts | 335° |
| 2026-04-30 20:31 | 28.60975 | -81.16144 | 36872 ft | 412 kts | 334° |
| 2026-04-30 20:32 | 28.74375 | -81.21945 | 36867 ft | 411 kts | 335° |
| 2026-04-30 20:33 | 28.82401 | -81.25437 | 36864 ft | 412 kts | 334° |
| 2026-04-30 20:34 | 28.90533 | -81.28730 | 36864 ft | 415 kts | 340° |
| 2026-04-30 20:35 | 28.99250 | -81.30032 | 36863 ft | 423 kts | 349° |
| 2026-04-30 20:35 | 29.08051 | -81.30736 | 36864 ft | 426 kts | 349° |
| 2026-04-30 20:36 | 29.13984 | -81.31230 | 36863 ft | 427 kts | 349° |
| 2026-04-30 20:37 | 29.22805 | -81.31929 | 36862 ft | 425 kts | 349° |
| 2026-04-30 20:37 | 29.28721 | -81.32394 | 36858 ft | 425 kts | 349° |
| 2026-04-30 20:38 | 29.34646 | -81.32753 | 36860 ft | 428 kts | 349° |
| 2026-04-30 20:38 | 29.40574 | -81.33082 | 36859 ft | 424 kts | 349° |
| 2026-04-30 20:39 | 29.49428 | -81.33596 | 36861 ft | 425 kts | 349° |
| 2026-04-30 20:40 | 29.58296 | -81.34116 | 36862 ft | 425 kts | 349° |
| 2026-04-30 20:40 | 29.64255 | -81.34476 | 36865 ft | 429 kts | 349° |
| 2026-04-30 20:41 | 29.73106 | -81.34992 | 36865 ft | 424 kts | 349° |
| 2026-04-30 20:41 | 29.79042 | -81.35346 | 36857 ft | 428 kts | 349° |
| 2026-04-30 20:42 | 29.84978 | -81.35698 | 36861 ft | 425 kts | 349° |
| 2026-04-30 20:43 | 29.93849 | -81.36225 | 36863 ft | 427 kts | 349° |
| 2026-04-30 20:43 | 29.99788 | -81.36578 | 36859 ft | 427 kts | 349° |
| 2026-04-30 20:44 | 30.08653 | -81.37105 | 36858 ft | 427 kts | 348° |
| 2026-04-30 20:45 | 30.20535 | -81.37815 | 36853 ft | 426 kts | 349° |
| 2026-04-30 20:45 | 30.26448 | -81.38170 | 36849 ft | 427 kts | 348° |
| 2026-04-30 20:46 | 30.38286 | -81.38878 | 36846 ft | 426 kts | 348° |
| 2026-04-30 20:47 | 30.47176 | -81.39415 | 36845 ft | 427 kts | 348° |
| 2026-04-30 20:48 | 30.56029 | -81.39873 | 36840 ft | 425 kts | 348° |
| 2026-04-30 20:48 | 30.61966 | -81.40190 | 36842 ft | 427 kts | 348° |
| 2026-04-30 20:49 | 30.67878 | -81.40500 | 36840 ft | 426 kts | 348° |
| 2026-04-30 20:50 | 30.76766 | -81.40970 | 36830 ft | 426 kts | 348° |
| 2026-04-30 20:50 | 30.82692 | -81.41286 | 36820 ft | 427 kts | 348° |
| 2026-04-30 20:51 | 30.88595 | -81.41595 | 36821 ft | 424 kts | 348° |
| 2026-04-30 20:51 | 30.97508 | -81.42079 | 36819 ft | 429 kts | 348° |
| 2026-04-30 20:52 | 31.03432 | -81.42388 | 36821 ft | 425 kts | 348° |
| 2026-04-30 20:53 | 31.12290 | -81.42863 | 36825 ft | 426 kts | 347° |
| 2026-04-30 20:53 | 31.18184 | -81.43176 | 36826 ft | 422 kts | 347° |
| 2026-04-30 20:54 | 31.27026 | -81.43653 | 36828 ft | 424 kts | 347° |
| 2026-04-30 20:55 | 31.35858 | -81.44191 | 36824 ft | 422 kts | 346° |
| 2026-04-30 20:55 | 31.41732 | -81.44554 | 36818 ft | 423 kts | 347° |
| 2026-04-30 20:56 | 31.50562 | -81.45099 | 36809 ft | 423 kts | 346° |
| 2026-04-30 20:57 | 31.59344 | -81.45626 | 36811 ft | 420 kts | 346° |
| 2026-04-30 20:57 | 31.65200 | -81.45992 | 36811 ft | 423 kts | 346° |
| 2026-04-30 20:58 | 31.74025 | -81.46528 | 36815 ft | 420 kts | 346° |
| 2026-04-30 20:58 | 31.79886 | -81.46890 | 36814 ft | 425 kts | 346° |
| 2026-04-30 20:59 | 31.88744 | -81.47435 | 36824 ft | 422 kts | 346° |
| 2026-04-30 21:00 | 32.00531 | -81.48160 | 36833 ft | 421 kts | 346° |
| 2026-04-30 21:01 | 32.09302 | -81.48701 | 36842 ft | 422 kts | 345° |
| 2026-04-30 21:02 | 32.18087 | -81.49245 | 36845 ft | 422 kts | 346° |
| 2026-04-30 21:02 | 32.23971 | -81.49613 | 36838 ft | 423 kts | 345° |
| 2026-04-30 21:03 | 32.29838 | -81.49974 | 36838 ft | 424 kts | 345° |
| 2026-04-30 21:03 | 32.35719 | -81.50337 | 36838 ft | 421 kts | 345° |
| 2026-04-30 21:04 | 32.41588 | -81.50702 | 36848 ft | 425 kts | 346° |
| 2026-04-30 21:04 | 32.50401 | -81.51252 | 36856 ft | 422 kts | 345° |
| 2026-04-30 21:05 | 32.56270 | -81.51617 | 36854 ft | 424 kts | 345° |
| 2026-04-30 21:05 | 32.62155 | -81.51985 | 36857 ft | 422 kts | 345° |
| 2026-04-30 21:06 | 32.68023 | -81.52353 | 36860 ft | 424 kts | 345° |
| 2026-04-30 21:06 | 32.73904 | -81.52722 | 36857 ft | 422 kts | 345° |
| 2026-04-30 21:07 | 32.79761 | -81.53087 | 36854 ft | 423 kts | 345° |
| 2026-04-30 21:07 | 32.85649 | -81.53458 | 36842 ft | 421 kts | 345° |
| 2026-04-30 21:08 | 32.91500 | -81.53824 | 36846 ft | 423 kts | 345° |
| 2026-04-30 21:08 | 32.97375 | -81.54195 | 36845 ft | 420 kts | 345° |
| 2026-04-30 21:09 | 33.03239 | -81.54567 | 36848 ft | 425 kts | 345° |
| 2026-04-30 21:09 | 33.09107 | -81.54935 | 36851 ft | 422 kts | 345° |
| 2026-04-30 21:10 | 33.14980 | -81.55305 | 36853 ft | 422 kts | 345° |
| 2026-04-30 21:10 | 33.20831 | -81.55673 | 36856 ft | 422 kts | 345° |
| 2026-04-30 21:11 | 33.26695 | -81.56049 | 36860 ft | 421 kts | 345° |
| 2026-04-30 21:11 | 33.32527 | -81.56416 | 36864 ft | 420 kts | 345° |
| 2026-04-30 21:12 | 33.38386 | -81.56791 | 36864 ft | 422 kts | 345° |
| 2026-04-30 21:12 | 33.44253 | -81.57161 | 36867 ft | 422 kts | 345° |
| 2026-04-30 21:13 | 33.50078 | -81.57528 | 36875 ft | 419 kts | 345° |
| 2026-04-30 21:13 | 33.55936 | -81.57911 | 36877 ft | 424 kts | 345° |
| 2026-04-30 21:14 | 33.61789 | -81.58281 | 36884 ft | 421 kts | 345° |
| 2026-04-30 21:14 | 33.67628 | -81.58654 | 36890 ft | 419 kts | 345° |
| 2026-04-30 21:15 | 33.73455 | -81.59027 | 36891 ft | 420 kts | 345° |
| 2026-04-30 21:15 | 33.79295 | -81.59402 | 36893 ft | 422 kts | 345° |
| 2026-04-30 21:16 | 33.85151 | -81.59778 | 36890 ft | 420 kts | 345° |
| 2026-04-30 21:16 | 33.90992 | -81.60156 | 36890 ft | 422 kts | 345° |
| 2026-04-30 21:17 | 33.96836 | -81.60531 | 36893 ft | 419 kts | 345° |
| 2026-04-30 21:17 | 34.02672 | -81.60909 | 36892 ft | 421 kts | 344° |
| 2026-04-30 21:18 | 34.08503 | -81.61281 | 36887 ft | 421 kts | 345° |
| 2026-04-30 21:18 | 34.14334 | -81.61656 | 36882 ft | 420 kts | 345° |
| 2026-04-30 21:19 | 34.20174 | -81.62039 | 36887 ft | 420 kts | 344° |
| 2026-04-30 21:19 | 34.25996 | -81.62413 | 36894 ft | 420 kts | 344° |
| 2026-04-30 21:20 | 34.31838 | -81.62792 | 36896 ft | 418 kts | 344° |
| 2026-04-30 21:20 | 34.37649 | -81.63172 | 36895 ft | 420 kts | 344° |
| 2026-04-30 21:21 | 34.43467 | -81.63551 | 36892 ft | 419 kts | 344° |
| 2026-04-30 21:22 | 34.52197 | -81.64121 | 36882 ft | 419 kts | 344° |
| 2026-04-30 21:23 | 34.63788 | -81.64883 | 36875 ft | 419 kts | 344° |
| 2026-04-30 21:23 | 34.72476 | -81.65447 | 36875 ft | 417 kts | 343° |
| 2026-04-30 21:24 | 34.78273 | -81.65842 | 36879 ft | 418 kts | 343° |
| 2026-04-30 21:24 | 34.84061 | -81.66218 | 36880 ft | 416 kts | 343° |
| 2026-04-30 21:25 | 34.92711 | -81.66781 | 36883 ft | 415 kts | 343° |
| 2026-04-30 21:26 | 35.01349 | -81.67349 | 36883 ft | 415 kts | 343° |
| 2026-04-30 21:27 | 35.09988 | -81.67911 | 36893 ft | 415 kts | 343° |
| 2026-04-30 21:27 | 35.15753 | -81.68302 | 36894 ft | 418 kts | 343° |
| 2026-04-30 21:28 | 35.24383 | -81.68871 | 36907 ft | 413 kts | 343° |
| 2026-04-30 21:29 | 35.33024 | -81.69455 | 36913 ft | 414 kts | 342° |
| 2026-04-30 21:30 | 35.47395 | -81.70411 | 36915 ft | 415 kts | 342° |
| 2026-04-30 21:31 | 35.61762 | -81.71378 | 36915 ft | 414 kts | 343° |
| 2026-04-30 21:32 | 35.70330 | -81.71945 | 36931 ft | 414 kts | 342° |
| 2026-04-30 21:32 | 35.76079 | -81.72336 | 36931 ft | 412 kts | 343° |
| 2026-04-30 21:33 | 35.84614 | -81.72909 | 36942 ft | 413 kts | 342° |
| 2026-04-30 21:34 | 35.90380 | -81.73307 | 36950 ft | 414 kts | 342° |
| 2026-04-30 21:34 | 35.98865 | -81.73866 | 36952 ft | 410 kts | 341° |
| 2026-04-30 21:35 | 36.04604 | -81.74264 | 36945 ft | 412 kts | 341° |
| 2026-04-30 21:35 | 36.10328 | -81.74650 | 36948 ft | 412 kts | 342° |
| 2026-04-30 21:36 | 36.16052 | -81.75026 | 36962 ft | 413 kts | 342° |
| 2026-04-30 21:37 | 36.27545 | -81.75833 | 36958 ft | 415 kts | 342° |
| 2026-04-30 21:37 | 36.33311 | -81.76222 | 36957 ft | 414 kts | 342° |
| 2026-04-30 21:38 | 36.39051 | -81.76609 | 36952 ft | 415 kts | 342° |
| 2026-04-30 21:38 | 36.44813 | -81.77007 | 36960 ft | 416 kts | 342° |
| 2026-04-30 21:39 | 36.50595 | -81.77403 | 36952 ft | 419 kts | 342° |
| 2026-04-30 21:39 | 36.56401 | -81.77797 | 36958 ft | 416 kts | 342° |
| 2026-04-30 21:40 | 36.62174 | -81.78190 | 36966 ft | 419 kts | 342° |
| 2026-04-30 21:40 | 36.68007 | -81.78596 | 36959 ft | 420 kts | 342° |
| 2026-04-30 21:41 | 36.73802 | -81.78992 | 36962 ft | 417 kts | 342° |
| 2026-04-30 21:41 | 36.79597 | -81.79398 | 36957 ft | 418 kts | 342° |
| 2026-04-30 21:42 | 36.85410 | -81.79801 | 36965 ft | 419 kts | 342° |
| 2026-04-30 21:42 | 36.91252 | -81.80206 | 36963 ft | 421 kts | 342° |
| 2026-04-30 21:43 | 36.96129 | -81.80545 | 36981 ft | 423 kts | 342° |
| 2026-04-30 21:43 | 37.02946 | -81.81013 | 36793 ft | 420 kts | 342° |
| 2026-04-30 21:44 | 37.05861 | -81.81218 | 36960 ft | 421 kts | 342° |
| 2026-04-30 21:44 | 37.08794 | -81.81428 | 36986 ft | 425 kts | 342° |
| 2026-04-30 21:44 | 37.14701 | -81.81839 | 36991 ft | 422 kts | 343° |
| 2026-04-30 21:45 | 37.20522 | -81.82234 | 36985 ft | 420 kts | 343° |
| 2026-04-30 21:45 | 37.26411 | -81.82661 | 36980 ft | 427 kts | 343° |
| 2026-04-30 21:46 | 37.32315 | -81.83063 | 36979 ft | 422 kts | 343° |
| 2026-04-30 21:46 | 37.38193 | -81.83477 | 36981 ft | 424 kts | 343° |
| 2026-04-30 21:47 | 37.44053 | -81.83888 | 36984 ft | 423 kts | 343° |
| 2026-04-30 21:47 | 37.49943 | -81.84305 | 36973 ft | 423 kts | 343° |
| 2026-04-30 21:48 | 37.55824 | -81.84718 | 36982 ft | 423 kts | 343° |
| 2026-04-30 21:48 | 37.61721 | -81.85141 | 36986 ft | 427 kts | 343° |
| 2026-04-30 21:49 | 37.67617 | -81.85549 | 36984 ft | 424 kts | 343° |
| 2026-04-30 21:49 | 37.73525 | -81.85971 | 36987 ft | 426 kts | 343° |
| 2026-04-30 21:50 | 37.79428 | -81.86388 | 36993 ft | 425 kts | 343° |
| 2026-04-30 21:50 | 37.85361 | -81.86813 | 36989 ft | 429 kts | 344° |
| 2026-04-30 21:51 | 37.91278 | -81.87231 | 36998 ft | 428 kts | 343° |
| 2026-04-30 21:51 | 37.97248 | -81.87664 | 37004 ft | 429 kts | 344° |
| 2026-04-30 21:52 | 38.03152 | -81.88073 | 37003 ft | 425 kts | 343° |
| 2026-04-30 21:52 | 38.09089 | -81.88507 | 37000 ft | 429 kts | 344° |
| 2026-04-30 21:53 | 38.15058 | -81.88936 | 37009 ft | 432 kts | 344° |
| 2026-04-30 21:53 | 38.21036 | -81.89361 | 37005 ft | 429 kts | 344° |
| 2026-04-30 21:54 | 38.26999 | -81.89786 | 37056 ft | 432 kts | 344° |
| 2026-04-30 21:54 | 38.32984 | -81.90216 | 37019 ft | 430 kts | 344° |
| 2026-04-30 21:55 | 38.38961 | -81.90647 | 37016 ft | 431 kts | 344° |
| 2026-04-30 21:55 | 38.44969 | -81.91083 | 37014 ft | 434 kts | 345° |
| 2026-04-30 21:56 | 38.50993 | -81.91520 | 37016 ft | 435 kts | 345° |
| 2026-04-30 21:56 | 38.57056 | -81.91963 | 37023 ft | 436 kts | 345° |
| 2026-04-30 21:57 | 38.63095 | -81.92394 | 37016 ft | 436 kts | 345° |
| 2026-04-30 21:57 | 38.69149 | -81.92836 | 37030 ft | 438 kts | 346° |
| 2026-04-30 21:58 | 38.75216 | -81.93276 | 37024 ft | 437 kts | 346° |
| 2026-04-30 21:58 | 38.81304 | -81.93721 | 37035 ft | 439 kts | 346° |
| 2026-04-30 21:59 | 38.87383 | -81.94165 | 37035 ft | 439 kts | 346° |
| 2026-04-30 22:00 | 38.96542 | -81.94838 | 37026 ft | 441 kts | 346° |
| 2026-04-30 22:00 | 39.05722 | -81.95511 | 37036 ft | 442 kts | 346° |
| 2026-04-30 22:01 | 39.11857 | -81.95961 | 37033 ft | 442 kts | 346° |
| 2026-04-30 22:01 | 39.18001 | -81.96414 | 37031 ft | 443 kts | 347° |
| 2026-04-30 22:02 | 39.24149 | -81.96867 | 37027 ft | 445 kts | 347° |
| 2026-04-30 22:02 | 39.30326 | -81.97325 | 37028 ft | 445 kts | 347° |
| 2026-04-30 22:03 | 39.36499 | -81.97780 | 37018 ft | 446 kts | 347° |
| 2026-04-30 22:03 | 39.42685 | -81.98241 | 37007 ft | 446 kts | 347° |
| 2026-04-30 22:04 | 39.48877 | -81.98703 | 37009 ft | 447 kts | 347° |
| 2026-04-30 22:05 | 39.58197 | -81.99396 | 37005 ft | 448 kts | 347° |
| 2026-04-30 22:05 | 39.64408 | -81.99859 | 37003 ft | 448 kts | 347° |
| 2026-04-30 22:06 | 39.70650 | -82.00329 | 36999 ft | 451 kts | 348° |
| 2026-04-30 22:06 | 39.80109 | -82.00141 | 36998 ft | 462 kts | 359° |
| 2026-04-30 22:07 | 39.86501 | -81.98780 | 37004 ft | 469 kts | 1° |
| 2026-04-30 22:07 | 39.92887 | -81.97244 | 37008 ft | 467 kts | 2° |
| 2026-04-30 22:08 | 39.99285 | -81.95697 | 37014 ft | 469 kts | 2° |
| 2026-04-30 22:08 | 40.05693 | -81.94146 | 36999 ft | 470 kts | 2° |
| 2026-04-30 22:09 | 40.12116 | -81.92590 | 37000 ft | 470 kts | 2° |
| 2026-04-30 22:09 | 40.18527 | -81.91033 | 36987 ft | 469 kts | 2° |
| 2026-04-30 22:10 | 40.24941 | -81.89473 | 36995 ft | 471 kts | 2° |
| 2026-04-30 22:10 | 40.31374 | -81.87906 | 36992 ft | 471 kts | 2° |
| 2026-04-30 22:11 | 40.41019 | -81.85589 | 36989 ft | 469 kts | 2° |
| 2026-04-30 22:12 | 40.47451 | -81.84102 | 36985 ft | 471 kts | 2° |
| 2026-04-30 22:12 | 40.53893 | -81.82606 | 36998 ft | 472 kts | 2° |
| 2026-04-30 22:13 | 40.60336 | -81.81102 | 36991 ft | 472 kts | 2° |
| 2026-04-30 22:13 | 40.66800 | -81.79590 | 36989 ft | 472 kts | 2° |
| 2026-04-30 22:13 | 40.70030 | -81.78833 | 36524 ft | 473 kts | 2° |
| 2026-04-30 22:14 | 40.73201 | -81.78080 | 36262 ft | 457 kts | 2° |
| 2026-04-30 22:14 | 40.76299 | -81.77344 | 35521 ft | 454 kts | 2° |
| 2026-04-30 22:14 | 40.79400 | -81.76617 | 34600 ft | 456 kts | 1° |
| 2026-04-30 22:14 | 40.82504 | -81.75891 | 33743 ft | 454 kts | 1° |
| 2026-04-30 22:15 | 40.85588 | -81.75173 | 32929 ft | 452 kts | 1° |
| 2026-04-30 22:15 | 40.88674 | -81.74639 | 32015 ft | 445 kts | 356° |
| 2026-04-30 22:15 | 40.91707 | -81.74392 | 31390 ft | 432 kts | 354° |
| 2026-04-30 22:15 | 40.94675 | -81.74244 | 30552 ft | 427 kts | 353° |
| 2026-04-30 22:16 | 40.97608 | -81.74129 | 29812 ft | 419 kts | 353° |
| 2026-04-30 22:16 | 41.00493 | -81.74017 | 28885 ft | 416 kts | 353° |
| 2026-04-30 22:17 | 41.08910 | -81.73681 | 26616 ft | 395 kts | 353° |
| 2026-04-30 22:17 | 41.11608 | -81.73574 | 26139 ft | 381 kts | 353° |
| 2026-04-30 22:17 | 41.16719 | -81.73362 | 25406 ft | 353 kts | 353° |
| 2026-04-30 22:18 | 41.19119 | -81.73263 | 25104 ft | 339 kts | 353° |
| 2026-04-30 22:18 | 41.23689 | -81.73085 | 24168 ft | 325 kts | 353° |
| 2026-04-30 22:19 | 41.28147 | -81.72918 | 22971 ft | 319 kts | 353° |
| 2026-04-30 22:19 | 41.30348 | -81.72832 | 22387 ft | 316 kts | 353° |
| 2026-04-30 22:19 | 41.34636 | -81.72654 | 21618 ft | 297 kts | 353° |
| 2026-04-30 22:20 | 41.36651 | -81.72566 | 21417 ft | 284 kts | 352° |
| 2026-04-30 22:20 | 41.40478 | -81.71299 | 20172 ft | 318 kts | 32° |
| 2026-04-30 22:20 | 41.41897 | -81.68930 | 19317 ft | 342 kts | 55° |
| 2026-04-30 22:21 | 41.43025 | -81.66126 | 18422 ft | 349 kts | 54° |
| 2026-04-30 22:21 | 41.44297 | -81.63390 | 17679 ft | 347 kts | 49° |
| 2026-04-30 22:21 | 41.45684 | -81.60815 | 17102 ft | 342 kts | 50° |
| 2026-04-30 22:21 | 41.46624 | -81.57899 | 16533 ft | 350 kts | 77° |
| 2026-04-30 22:22 | 41.46732 | -81.54677 | 15961 ft | 350 kts | 90° |
| 2026-04-30 22:22 | 41.46593 | -81.51464 | 15362 ft | 348 kts | 91° |
| 2026-04-30 22:22 | 41.46431 | -81.48281 | 14805 ft | 344 kts | 91° |
| 2026-04-30 22:22 | 41.46312 | -81.45134 | 14239 ft | 338 kts | 83° |
| 2026-04-30 22:23 | 41.46882 | -81.42188 | 13655 ft | 324 kts | 54° |
| 2026-04-30 22:23 | 41.48333 | -81.40080 | 13106 ft | 303 kts | 24° |